Time;durP1;ratioP1;P1;durP2;ratioP2;P2;SDS_P1;SDS_P2;PMS_P1;PMS_P2;Temp;Humidity;BMP_temperature;BMP_pressure;BME280_temperature;BME280_humidity;BME280_pressure;Samples;Min_cycle;Max_cycle;Signal;HPM_P1;HPM_P2
2022/05/21 00:01:38;;;;;;;5.47;4.63;;;;;;;16.43;88.50;96070.31;5022574;28;20210;-76
2022/05/21 00:04:04;;;;;;;4.78;4.05;;;;;;;16.50;86.88;96075.69;5004036;28;20175;-77
2022/05/21 00:06:29;;;;;;;4.93;4.45;;;;;;;16.24;86.59;96071.53;5020368;28;20206;-76
2022/05/21 00:08:54;;;;;;;5.43;4.43;;;;;;;16.31;86.94;96080.38;5021865;28;20640;-76
2022/05/21 00:11:20;;;;;;;7.25;4.72;;;;;;;16.11;87.34;96082.56;5003568;28;20242;-78
2022/05/21 00:13:47;;;;;;;4.82;4.40;;;;;;;15.93;88.69;96086.41;5032997;28;20215;-77
2022/05/21 00:16:12;;;;;;;5.20;4.60;;;;;;;16.01;88.51;96083.75;5001291;28;20207;-77
2022/05/21 00:18:37;;;;;;;4.47;4.07;;;;;;;16.01;87.61;96081.13;5000753;28;20179;-77
2022/05/21 00:21:03;;;;;;;6.63;3.95;;;;;;;15.85;88.21;96098.53;5000011;28;20199;-77
2022/05/21 00:23:34;;;;;;;5.10;4.25;;;;;;;15.71;88.92;96093.13;4999887;28;20180;-77
2022/05/21 00:26:03;;;;;;;5.63;4.18;;;;;;;15.66;89.76;96098.06;5003346;28;20203;-78
2022/05/21 00:28:29;;;;;;;4.60;4.20;;;;;;;15.63;89.40;96101.00;5018063;28;20179;-77
2022/05/21 00:30:55;;;;;;;5.55;4.55;;;;;;;15.61;89.75;96100.34;5004492;28;20186;-76
2022/05/21 00:33:21;;;;;;;4.63;3.78;;;;;;;15.52;89.48;96108.16;5049519;28;20171;-77
2022/05/21 00:35:48;;;;;;;4.70;4.20;;;;;;;15.56;89.15;96096.41;5019898;28;20194;-77
2022/05/21 00:38:13;;;;;;;5.00;4.22;;;;;;;15.44;89.82;96100.31;5010763;28;20179;-78
2022/05/21 00:40:39;;;;;;;5.35;4.85;;;;;;;15.35;89.85;96106.53;5018378;28;20262;-77
2022/05/21 00:43:05;;;;;;;5.15;4.65;;;;;;;15.23;89.99;96100.81;5000976;28;20183;-79
2022/05/21 00:45:30;;;;;;;5.30;4.63;;;;;;;15.24;89.34;96104.25;5016240;28;20699;-77
2022/05/21 00:47:56;;;;;;;4.93;4.43;;;;;;;15.35;87.96;96110.97;5016515;28;20179;-78
2022/05/21 00:50:24;;;;;;;5.93;4.32;;;;;;;15.31;88.47;96107.88;5000743;28;20224;-78
2022/05/21 00:52:50;;;;;;;7.38;4.72;;;;;;;14.94;89.62;96106.50;4999853;28;20248;-78
2022/05/21 00:55:22;;;;;;;6.18;4.75;;;;;;;15.10;88.46;96115.34;5001066;28;20722;-77
2022/05/21 00:59:47;;;;;;;5.47;4.93;;;;;;;14.98;89.40;96115.66;5004973;28;20187;-78
2022/05/21 01:00:36;;;;;;;5.53;5.03;;;;;;;14.81;90.04;96110.56;5023745;28;20233;-78
2022/05/21 01:03:01;;;;;;;5.80;5.20;;;;;;;14.84;89.25;96113.69;5009755;28;20207;-79
2022/05/21 01:05:27;;;;;;;5.67;5.17;;;;;;;14.66;90.12;96110.34;4997572;28;20199;-79
2022/05/21 01:07:55;;;;;;;7.90;5.40;;;;;;;14.70;89.86;96109.88;4991282;28;20192;-79
2022/05/21 01:10:22;;;;;;;5.63;5.03;;;;;;;14.59;89.94;96114.59;4991765;28;20529;-79
2022/05/21 01:12:53;;;;;;;8.13;5.53;;;;;;;14.52;90.06;96109.19;4991795;28;20195;-78
2022/05/21 01:15:27;;;;;;;5.88;5.32;;;;;;;14.57;89.39;96126.97;4987693;28;20192;-79
2022/05/21 01:17:52;;;;;;;8.10;5.60;;;;;;;14.54;89.40;96127.31;4990222;28;20258;-79
2022/05/21 01:20:21;;;;;;;5.97;5.45;;;;;;;14.39;89.97;96129.66;5006697;28;20242;-79
2022/05/21 01:22:52;;;;;;;7.25;4.85;;;;;;;14.34;90.64;96127.53;5007379;28;20176;-79
2022/05/21 01:25:21;;;;;;;5.60;5.10;;;;;;;14.37;89.70;96131.63;4996287;28;20575;-79
2022/05/21 01:27:48;;;;;;;5.20;4.70;;;;;;;14.27;90.28;96125.69;5024291;28;20234;-78
2022/05/21 01:30:18;;;;;;;6.47;5.47;;;;;;;14.20;90.30;96133.31;4989773;28;20207;-79
2022/05/21 01:32:48;;;;;;;5.90;5.17;;;;;;;14.17;89.97;96131.84;4989993;28;20188;-78
2022/05/21 01:35:14;;;;;;;7.27;5.67;;;;;;;14.15;89.92;96127.75;5005395;28;20581;-79
2022/05/21 01:37:41;;;;;;;5.93;4.87;;;;;;;14.07;90.14;96131.16;5019698;28;20220;-78
2022/05/21 01:40:07;;;;;;;7.43;5.03;;;;;;;13.94;91.14;96127.31;5019816;28;20211;-79
2022/05/21 01:42:33;;;;;;;6.67;5.63;;;;;;;13.86;90.55;96126.28;5004971;28;20191;-79
2022/05/21 01:44:59;;;;;;;7.50;5.57;;;;;;;13.85;89.95;96127.25;5019515;28;20183;-78
2022/05/21 01:47:24;;;;;;;6.30;5.23;;;;;;;13.89;89.83;96126.00;5004981;28;20204;-79
2022/05/21 01:49:51;;;;;;;5.43;4.93;;;;;;;13.79;90.17;96125.28;5003924;28;20180;-79
2022/05/21 01:52:17;;;;;;;5.47;4.97;;;;;;;13.79;90.17;96135.72;5005354;28;20182;-79
2022/05/21 01:54:42;;;;;;;6.90;4.70;;;;;;;13.79;89.64;96127.88;5019097;28;20601;-77
2022/05/21 01:57:09;;;;;;;6.73;4.50;;;;;;;13.64;89.89;96139.84;5019803;28;20188;-78
2022/05/21 01:59:34;;;;;;;5.40;4.60;;;;;;;13.65;89.33;96141.47;5018866;28;20198;-79
2022/05/21 02:02:01;;;;;;;6.47;4.80;;;;;;;13.48;89.51;96139.72;5020865;28;20236;-79
2022/05/21 02:04:27;;;;;;;5.10;4.53;;;;;;;13.53;89.77;96153.13;5017625;28;20241;-78
2022/05/21 02:06:52;;;;;;;5.50;5.00;;;;;;;13.63;88.83;96164.31;4986484;28;20227;-78
2022/05/21 02:09:17;;;;;;;5.33;4.53;;;;;;;13.48;88.99;96163.19;5018725;28;20324;-78
2022/05/21 02:11:43;;;;;;;6.03;5.07;;;;;;;13.39;89.77;96177.13;5020671;28;20615;-78
2022/05/21 02:14:09;;;;;;;7.10;4.90;;;;;;;13.26;89.74;96186.16;5020472;28;20183;-79
2022/05/21 02:16:36;;;;;;;6.27;5.67;;;;;;;13.26;89.86;96178.34;5006347;28;20571;-79
2022/05/21 02:19:03;;;;;;;6.47;5.03;;;;;;;13.38;89.57;96184.16;5005059;28;20176;-79
2022/05/21 02:21:29;;;;;;;5.77;4.93;;;;;;;13.30;89.99;96191.88;4990180;28;20239;-78
2022/05/21 02:23:54;;;;;;;6.10;5.50;;;;;;;13.22;90.00;96195.25;5005814;28;20218;-77
2022/05/21 02:26:20;;;;;;;7.20;5.23;;;;;;;13.30;89.00;96192.72;5005473;28;20211;-77
2022/05/21 02:28:45;;;;;;;7.03;5.40;;;;;;;13.20;88.63;96186.75;5024096;28;20183;-78
2022/05/21 02:31:11;;;;;;;7.80;5.80;;;;;;;13.17;89.23;96189.63;5021735;28;20203;-78
2022/05/21 02:33:36;;;;;;;6.67;5.13;;;;;;;13.25;88.90;96187.13;5005293;28;20187;-77
2022/05/21 02:36:01;;;;;;;6.03;5.30;;;;;;;13.16;89.09;96177.53;5020905;28;20208;-78
2022/05/21 02:41:12;;;;;;;6.47;5.47;;;;;;;13.20;88.17;96185.94;5018803;28;20642;-78
2022/05/21 02:43:39;;;;;;;6.37;5.77;;;;;;;13.16;88.98;96189.75;5020732;28;20203;-78
2022/05/21 02:46:04;;;;;;;6.67;5.77;;;;;;;13.10;88.91;96193.78;5004462;28;20657;-77
2022/05/21 02:48:30;;;;;;;8.73;5.90;;;;;;;12.82;89.01;96187.78;5004147;28;20188;-78
2022/05/21 02:50:56;;;;;;;7.30;6.60;;;;;;;12.78;90.59;96191.63;5020984;28;20207;-77
2022/05/21 02:53:21;;;;;;;7.13;6.27;;;;;;;12.83;89.94;96201.63;5021053;28;20188;-78
2022/05/21 02:55:47;;;;;;;8.53;6.63;;;;;;;12.89;89.99;96203.63;5020210;28;20207;-78
2022/05/21 02:58:12;;;;;;;10.87;6.60;;;;;;;12.87;89.24;96198.56;5005463;28;20183;-78
2022/05/21 03:00:38;;;;;;;7.23;6.10;;;;;;;12.82;89.26;96205.22;5003800;28;20204;-77
2022/05/21 03:03:03;;;;;;;7.53;6.50;;;;;;;12.74;89.48;96198.94;5021184;28;20176;-77
2022/05/21 03:05:30;;;;;;;7.67;6.97;;;;;;;12.71;89.19;96201.00;5003224;28;20188;-78
2022/05/21 03:07:56;;;;;;;8.47;7.60;;;;;;;12.56;90.10;96198.06;5020082;28;20529;-77
2022/05/21 03:10:23;;;;;;;7.47;6.63;;;;;;;12.59;89.76;96205.56;5004510;28;20175;-77
2022/05/21 03:13:01;;;;;;;7.80;7.00;;;;;;;12.63;89.67;96201.75;5003580;28;20183;-78
2022/05/21 03:15:33;;;;;;;8.10;6.97;;;;;;;12.50;89.40;96197.81;5004622;28;20179;-77
2022/05/21 03:18:00;;;;;;;8.57;7.17;;;;;;;12.59;89.66;96207.38;4986984;28;20251;-78
2022/05/21 03:20:25;;;;;;;8.10;6.50;;;;;;;12.62;89.26;96201.84;4986394;28;20208;-78
2022/05/21 03:22:50;;;;;;;7.60;6.90;;;;;;;12.63;88.74;96206.09;5018624;28;20179;-78
2022/05/21 03:25:16;;;;;;;7.27;6.60;;;;;;;12.61;88.56;96200.22;5004808;28;20203;-79
2022/05/21 03:27:41;;;;;;;7.93;6.53;;;;;;;12.64;88.49;96211.19;5003800;28;20226;-78
2022/05/21 03:30:10;;;;;;;7.37;6.53;;;;;;;12.49;88.75;96212.63;5020574;28;20191;-78
2022/05/21 03:32:35;;;;;;;8.13;7.30;;;;;;;12.56;88.73;96215.47;5003436;28;20817;-78
2022/05/21 03:35:01;;;;;;;7.63;6.80;;;;;;;12.59;88.83;96215.19;5019453;28;20222;-78
2022/05/21 03:37:26;;;;;;;11.10;6.90;;;;;;;12.60;88.24;96224.63;5003467;28;20211;-77
2022/05/21 03:39:52;;;;;;;7.27;6.67;;;;;;;12.63;86.69;96225.19;5019208;28;20545;-78
2022/05/21 03:42:17;;;;;;;9.37;6.90;;;;;;;12.55;87.87;96221.66;5019974;28;20200;-78
2022/05/21 03:44:43;;;;;;;7.87;6.30;;;;;;;12.50;87.56;96222.06;5003281;28;20176;-78
2022/05/21 03:47:09;;;;;;;7.20;6.50;;;;;;;12.55;87.85;96226.88;5020732;28;20218;-77
2022/05/21 03:49:34;;;;;;;8.30;7.20;;;;;;;12.56;87.66;96231.13;5003751;28;20179;-78
2022/05/21 03:51:59;;;;;;;9.50;6.80;;;;;;;12.67;86.81;96229.13;5020168;28;20623;-77
2022/05/21 03:54:25;;;;;;;7.23;6.53;;;;;;;12.57;87.49;96230.16;5018848;28;20186;-78
2022/05/21 03:56:51;;;;;;;9.83;6.70;;;;;;;12.59;87.25;96226.41;5020167;28;20222;-78
2022/05/21 03:59:16;;;;;;;8.27;6.40;;;;;;;12.68;86.67;96228.16;5019221;28;20180;-78
2022/05/21 04:01:41;;;;;;;7.47;6.40;;;;;;;13.69;82.85;96241.16;5018648;28;20266;-77
2022/05/21 04:04:07;;;;;;;8.37;6.03;;;;;;;14.75;75.91;96240.09;5018794;28;20187;-77
2022/05/21 04:06:33;;;;;;;5.83;5.20;;;;;;;14.61;74.39;96232.88;4986426;28;20212;-78
2022/05/21 04:08:58;;;;;;;5.60;5.03;;;;;;;14.48;75.75;96237.69;5018888;28;20194;-78
2022/05/21 04:11:24;;;;;;;5.57;4.97;;;;;;;13.93;76.98;96235.31;5002745;28;20179;-77
2022/05/21 04:13:49;;;;;;;6.20;4.87;;;;;;;13.73;78.95;96243.34;4985834;28;20191;-78
2022/05/21 04:16:14;;;;;;;6.90;5.50;;;;;;;13.55;79.78;96237.31;5002526;28;20744;-78
2022/05/21 04:18:39;;;;;;;5.33;4.83;;;;;;;13.51;79.36;96244.59;4985694;28;20708;-77
2022/05/21 04:21:05;;;;;;;6.50;5.57;;;;;;;13.41;79.60;96238.63;5002607;28;20207;-78
2022/05/21 04:23:30;;;;;;;5.77;5.27;;;;;;;13.38;80.46;96238.09;5003578;28;20191;-78
2022/05/21 04:25:55;;;;;;;8.57;5.13;;;;;;;13.36;79.72;96240.06;4985412;28;20620;-77
2022/05/21 04:28:21;;;;;;;5.43;4.90;;;;;;;13.48;79.37;96241.47;5003612;28;20187;-78
2022/05/21 04:30:46;;;;;;;7.67;4.40;;;;;;;13.58;79.96;96244.81;5003331;28;20203;-77
2022/05/21 04:33:11;;;;;;;5.23;4.73;;;;;;;15.24;72.86;96235.88;5018022;28;20267;-78
2022/05/21 04:38:20;;;;;;;7.72;3.70;;;;;;;18.44;58.17;96255.72;5021286;28;20186;-78
2022/05/21 04:40:46;;;;;;;4.32;3.92;;;;;;;19.29;54.64;96261.38;5025063;28;20203;-77
2022/05/21 04:43:11;;;;;;;3.80;3.35;;;;;;;20.00;52.13;96258.91;5025238;28;20186;-79
2022/05/21 04:45:37;;;;;;;4.95;3.72;;;;;;;19.84;51.47;96265.25;5008073;28;20279;-79
2022/05/21 04:48:04;;;;;;;5.90;3.72;;;;;;;20.06;51.54;96269.53;4988595;28;20178;-78
2022/05/21 04:50:29;;;;;;;4.00;3.70;;;;;;;19.46;53.61;96267.25;5007966;28;20175;-77
2022/05/21 04:52:54;;;;;;;3.83;3.42;;;;;;;20.12;50.16;96267.94;5008150;28;20194;-76
2022/05/21 04:55:20;;;;;;;4.35;3.83;;;;;;;20.41;49.82;96261.69;5006404;28;20202;-77
2022/05/21 04:57:45;;;;;;;4.35;3.40;;;;;;;21.86;47.53;96266.91;5007966;28;20178;-77
2022/05/21 05:00:11;;;;;;;5.13;3.70;;;;;;;22.20;46.26;96268.63;5022308;28;20180;-78
2022/05/21 05:02:37;;;;;;;5.35;3.50;;;;;;;22.60;45.27;96271.25;4990988;28;20190;-78
2022/05/21 05:05:02;;;;;;;3.63;3.33;;;;;;;23.48;41.68;96265.56;5007383;28;20661;-77
2022/05/21 05:07:28;;;;;;;5.13;3.20;;;;;;;23.83;41.27;96274.78;5007783;28;20731;-77
2022/05/21 05:09:53;;;;;;;5.50;3.80;;;;;;;23.11;41.95;96271.41;5006326;28;20188;-77
2022/05/21 05:12:18;;;;;;;5.10;3.17;;;;;;;23.27;41.71;96270.13;5009132;28;20187;-77
2022/05/21 05:14:44;;;;;;;4.32;3.17;;;;;;;22.92;42.08;96277.56;5024705;28;20206;-77
2022/05/21 05:17:13;;;;;;;3.72;3.42;;;;;;;24.20;39.34;96274.94;5025917;28;20235;-77
2022/05/21 05:19:38;;;;;;;6.45;3.10;;;;;;;24.34;39.45;96270.41;5011883;28;20179;-77
2022/05/21 05:22:04;;;;;;;3.90;3.50;;;;;;;23.00;43.08;96273.88;5027546;28;20238;-78
2022/05/21 05:24:30;;;;;;;3.47;3.17;;;;;;;22.57;43.56;96279.63;5025238;28;20175;-77
2022/05/21 05:26:55;;;;;;;4.45;3.55;;;;;;;22.50;43.79;96274.31;5024636;28;20190;-77
2022/05/21 05:29:20;;;;;;;4.18;3.30;;;;;;;23.07;41.94;96274.69;5009275;28;20179;-77
2022/05/21 05:31:46;;;;;;;5.25;2.97;;;;;;;24.06;40.38;96279.56;5027573;28;20175;-77
2022/05/21 05:34:11;;;;;;;5.05;2.83;;;;;;;25.09;37.92;96271.16;5032227;28;20175;-77
2022/05/21 05:36:38;;;;;;;3.90;2.75;;;;;;;24.67;39.15;96270.94;5012530;28;20231;-78
2022/05/21 05:39:03;;;;;;;4.20;2.50;;;;;;;24.85;38.24;96272.81;5031145;28;20202;-76
2022/05/21 05:41:29;;;;;;;4.28;2.70;;;;;;;24.65;38.23;96272.16;5021064;28;20217;-77
2022/05/21 05:43:54;;;;;;;3.20;2.90;;;;;;;24.47;37.99;96270.28;5022700;28;20167;-77
2022/05/21 05:46:20;;;;;;;4.80;2.60;;;;;;;24.97;36.68;96275.56;5004954;28;20217;-77
2022/05/21 05:48:45;;;;;;;2.50;2.30;;;;;;;25.43;36.99;96277.72;5022796;28;20191;-78
2022/05/21 05:51:11;;;;;;;3.58;2.35;;;;;;;25.21;36.76;96276.56;5021994;28;20176;-77
2022/05/21 05:53:36;;;;;;;2.95;2.72;;;;;;;25.98;34.69;96282.97;5022366;28;20175;-77
2022/05/21 05:56:01;;;;;;;4.07;2.63;;;;;;;25.24;35.39;96284.91;5021088;28;20195;-77
2022/05/21 06:01:11;;;;;;;5.22;3.08;;;;;;;25.11;36.33;96285.06;5026188;28;20210;-77
2022/05/21 06:03:37;;;;;;;3.72;2.40;;;;;;;24.34;37.25;96284.47;5022749;28;20183;-78
2022/05/21 06:06:03;;;;;;;3.65;2.20;;;;;;;24.44;37.84;96282.16;5024068;28;20195;-78
2022/05/21 06:08:28;;;;;;;2.88;2.13;;;;;;;23.83;38.73;96282.75;5007038;28;20186;-77
2022/05/21 06:10:53;;;;;;;3.45;2.08;;;;;;;24.10;38.13;96282.56;5006438;28;20175;-78
2022/05/21 06:13:19;;;;;;;4.57;2.22;;;;;;;25.21;35.31;96293.31;5023127;28;20175;-77
2022/05/21 06:15:44;;;;;;;2.60;2.25;;;;;;;25.08;34.76;96283.63;5022232;28;20198;-77
2022/05/21 06:18:16;;;;;;;1.73;1.60;;;;;;;25.43;34.40;96283.03;5023429;28;20179;-78
2022/05/21 06:20:42;;;;;;;3.20;1.55;;;;;;;25.55;33.67;96283.13;5005598;28;20210;-78
2022/05/21 06:23:08;;;;;;;1.70;1.60;;;;;;;25.40;33.94;96288.81;5008417;28;20179;-78
2022/05/21 06:25:36;;;;;;;3.67;1.63;;;;;;;24.77;34.98;96295.16;5033739;28;20179;-77
2022/05/21 06:28:05;;;;;;;2.50;1.70;;;;;;;25.40;33.09;96294.13;5022690;28;20167;-76
2022/05/21 06:30:31;;;;;;;3.78;1.40;;;;;;;25.09;33.77;96287.94;5022304;28;20175;-76
2022/05/21 06:32:59;;;;;;;2.78;1.60;;;;;;;24.60;34.28;96285.31;5022544;28;20168;-76
2022/05/21 06:35:26;;;;;;;3.45;1.35;;;;;;;24.87;34.31;96294.66;5021987;28;20168;-76
2022/05/21 06:37:52;;;;;;;3.38;1.30;;;;;;;22.79;37.89;96291.63;5030563;28;20660;-79
2022/05/21 06:40:17;;;;;;;3.47;1.02;;;;;;;23.03;36.15;96276.09;5028440;28;20205;-77
2022/05/21 06:42:43;;;;;;;3.95;1.10;;;;;;;23.02;37.09;96279.78;5023668;28;20553;-77
2022/05/21 06:45:09;;;;;;;2.70;1.27;;;;;;;22.16;38.85;96282.44;5020364;28;20179;-76
2022/05/21 06:47:34;;;;;;;2.40;0.82;;;;;;;;;;5017266;28;20203;-76
2022/05/21 06:49:59;;;;;;;1.63;0.90;;;;;;;22.85;38.54;96282.06;5014317;28;20179;-80
2022/05/21 06:52:26;;;;;;;3.28;1.15;;;;;;;22.74;37.46;96291.41;5008231;28;20175;-77
2022/05/21 06:54:52;;;;;;;1.40;0.80;;;;;;;22.18;38.56;96291.81;5024768;28;20211;-79
2022/05/21 06:57:18;;;;;;;5.18;0.90;;;;;;;23.20;36.79;96290.53;5008444;28;20206;-79
2022/05/21 06:59:44;;;;;;;1.17;0.82;;;;;;;23.14;36.79;96301.94;5008059;28;20186;-79
2022/05/21 07:02:09;;;;;;;3.30;1.13;;;;;;;24.13;34.38;96301.56;5025066;28;20580;-79
2022/05/21 07:07:34;;;;;;;1.17;0.90;;;;;;;24.02;34.36;96289.75;5023434;28;20205;-79
2022/05/21 07:10:03;;;;;;;1.60;0.95;;;;;;;24.96;33.23;96295.19;5023398;28;20182;-78
2022/05/21 07:12:30;;;;;;;1.23;0.80;;;;;;;24.59;33.30;96289.81;5022841;28;20190;-77
2022/05/21 07:14:55;;;;;;;2.85;0.82;;;;;;;24.46;33.41;96292.56;5022576;28;20179;-79
2022/05/21 07:17:20;;;;;;;2.80;0.98;;;;;;;25.54;31.97;96286.81;5025009;28;20282;-79
2022/05/21 07:19:46;;;;;;;0.73;0.70;;;;;;;24.53;33.07;96282.69;5024770;28;20588;-79
2022/05/21 07:22:11;;;;;;;1.67;0.98;;;;;;;24.54;32.73;96276.34;5024368;28;20209;-79
2022/05/21 07:24:40;;;;;;;2.08;0.93;;;;;;;23.90;34.14;96270.25;5020946;28;20187;-79
2022/05/21 07:27:06;;;;;;;1.38;0.60;;;;;;;23.75;33.91;96264.44;5005026;28;20692;-81
2022/05/21 07:29:31;;;;;;;1.20;0.65;;;;;;;23.90;33.05;96264.97;5005345;28;20182;-79
2022/05/21 07:31:56;;;;;;;1.92;0.85;;;;;;;23.73;35.12;96269.94;5021821;28;20176;-79
2022/05/21 07:34:22;;;;;;;1.77;0.60;;;;;;;24.40;33.87;96277.50;5004191;28;20175;-79
2022/05/21 07:36:48;;;;;;;1.00;0.60;;;;;;;23.57;33.78;96280.19;5006211;28;20205;-80
2022/05/21 07:39:13;;;;;;;2.08;0.75;;;;;;;23.78;34.26;96282.59;5003741;28;20241;-78
2022/05/21 07:41:38;;;;;;;1.63;0.55;;;;;;;24.02;33.49;96288.94;5021081;28;20790;-77
2022/05/21 07:44:04;;;;;;;2.20;0.93;;;;;;;23.24;35.19;96285.66;5019828;28;20183;-79
2022/05/21 07:46:29;;;;;;;0.60;0.50;;;;;;;23.61;34.38;96292.06;5018838;28;20256;-80
2022/05/21 07:48:54;;;;;;;0.90;0.60;;;;;;;23.51;36.34;96296.97;5020931;28;20179;-80
2022/05/21 07:51:20;;;;;;;1.50;0.60;;;;;;;22.60;36.16;96290.59;5020884;28;20171;-78
2022/05/21 07:53:45;;;;;;;2.00;0.77;;;;;;;23.60;35.10;96287.78;5003398;28;20187;-81
2022/05/21 07:56:11;;;;;;;1.02;0.65;;;;;;;23.26;34.70;96281.75;5022601;28;20199;-79
2022/05/21 07:58:38;;;;;;;2.90;0.85;;;;;;;22.63;35.60;96288.56;5004401;28;20186;-79
2022/05/21 08:01:04;;;;;;;0.98;0.70;;;;;;;22.16;36.95;96291.19;5004686;28;20261;-78
2022/05/21 08:03:29;;;;;;;0.80;0.50;;;;;;;22.05;38.63;96284.63;5020114;28;20179;-80
2022/05/21 08:05:55;;;;;;;0.80;0.55;;;;;;;22.45;38.65;96279.41;5001039;28;20207;-79
2022/05/21 08:08:21;;;;;;;1.70;0.60;;;;;;;22.17;37.16;96284.06;5033276;28;20179;-78
2022/05/21 08:10:46;;;;;;;0.70;0.60;;;;;;;22.00;37.89;96283.63;5019694;28;20242;-77
2022/05/21 08:13:12;;;;;;;2.15;0.80;;;;;;;22.03;37.83;96286.69;5034978;28;20160;-77
2022/05/21 08:15:39;;;;;;;2.13;0.60;;;;;;;21.55;39.17;96274.53;5035040;28;20163;-77
2022/05/21 08:18:07;;;;;;;1.23;0.90;;;;;;;21.98;39.01;96288.28;5035702;28;20178;-77
2022/05/21 08:20:33;;;;;;;2.75;0.98;;;;;;;21.93;39.86;96282.81;5036195;28;20199;-76
2022/05/21 08:28:27;;;;;;;1.63;0.98;;;;;;;20.58;43.39;96273.63;5036772;28;20167;-77
2022/05/21 08:30:52;;;;;;;2.70;0.90;;;;;;;20.58;43.08;96273.63;5035313;28;20171;-75
2022/05/21 08:33:18;;;;;;;3.45;0.88;;;;;;;20.46;42.86;96283.06;5035527;28;20187;-75
2022/05/21 08:35:43;;;;;;;1.45;0.90;;;;;;;20.36;43.67;96283.34;5019170;28;20215;-75
2022/05/21 08:38:10;;;;;;;1.08;0.70;;;;;;;19.84;45.06;96286.31;5036240;28;20251;-75
2022/05/21 08:40:45;;;;;;;2.53;0.60;;;;;;;19.76;45.00;96289.88;5019750;28;20209;-76
2022/05/21 08:43:19;;;;;;;2.35;0.90;;;;;;;19.18;47.39;96285.53;5035945;28;20167;-75
2022/05/21 08:45:59;;;;;;;4.00;1.00;;;;;;;19.43;47.95;96278.13;5034945;28;20178;-75
2022/05/21 08:48:25;;;;;;;2.72;0.85;;;;;;;19.18;46.50;96278.47;5019329;28;20178;-75
2022/05/21 08:50:52;;;;;;;0.85;0.70;;;;;;;19.21;48.77;96274.63;5018953;28;20187;-74
2022/05/21 08:53:22;;;;;;;1.80;0.82;;;;;;;19.34;48.08;96276.59;5019523;28;20175;-74
2022/05/21 08:55:50;;;;;;;1.20;0.80;;;;;;;19.52;46.96;96280.50;5035279;28;20234;-75
2022/05/21 08:58:31;;;;;;;1.75;0.60;;;;;;;19.32;47.70;96271.53;5035627;28;20179;-75
2022/05/21 09:00:57;;;;;;;3.08;0.88;;;;;;;19.52;48.19;96274.38;5035922;28;20205;-76
2022/05/21 09:03:24;;;;;;;1.73;0.70;;;;;;;19.84;47.32;96267.06;5032132;28;20175;-77
2022/05/21 09:06:16;;;;;;;2.67;0.70;;;;;;;19.64;48.84;96259.78;5015372;28;20285;-77
2022/05/21 09:08:50;;;;;;;2.60;0.93;;;;;;;20.02;46.64;96270.06;5016029;28;20641;-76
2022/05/21 09:11:24;;;;;;;1.52;0.80;;;;;;;19.88;47.37;96269.16;5016092;28;20648;-79
2022/05/21 09:14:06;;;;;;;3.63;0.93;;;;;;;19.90;46.65;96263.69;5016442;28;20246;-78
2022/05/21 09:16:55;;;;;;;3.03;1.02;;;;;;;19.79;46.24;96259.72;4999443;28;20203;-77
2022/05/21 09:19:37;;;;;;;1.35;0.70;;;;;;;20.08;45.46;96264.06;5016061;28;20175;-77
2022/05/21 09:22:13;;;;;;;2.47;0.70;;;;;;;20.05;45.64;96254.72;5013721;28;20578;-77
2022/05/21 09:24:44;;;;;;;1.98;0.82;;;;;;;20.08;44.11;96262.22;5016231;28;21550;-77
2022/05/21 09:27:28;;;;;;;2.10;0.70;;;;;;;19.87;47.74;96262.22;5017262;28;20750;-77
2022/05/21 09:30:13;;;;;;;1.67;0.88;;;;;;;19.65;45.81;96252.69;5017592;28;20183;-77
2022/05/21 09:32:40;;;;;;;1.52;0.80;;;;;;;19.19;46.72;96243.22;5000796;28;20456;-77
2022/05/21 09:35:09;;;;;;;2.72;0.68;;;;;;;19.81;44.84;96260.34;5017274;28;20175;-77
2022/05/21 09:37:34;;;;;;;4.20;1.10;;;;;;;19.63;46.01;96244.16;5016469;28;20203;-77
2022/05/21 09:40:00;;;;;;;2.20;0.80;;;;;;;19.49;46.77;96248.41;5016976;28;20206;-77
2022/05/21 09:45:24;;;;;;;2.60;1.48;;;;;;;19.94;46.69;96242.00;5017015;28;20186;-77
2022/05/21 09:47:53;;;;;;;5.40;3.00;;;;;;;20.20;46.44;96238.78;5017487;28;20183;-77
2022/05/21 09:50:26;;;;;;;5.13;2.88;;;;;;;20.46;45.37;96246.13;5016485;28;20266;-78
2022/05/21 09:52:52;;;;;;;1.77;1.05;;;;;;;20.03;44.46;96242.69;5017657;28;20187;-76
2022/05/21 09:55:29;;;;;;;1.08;0.70;;;;;;;19.49;46.37;96251.88;5014213;28;20171;-77
2022/05/21 09:58:06;;;;;;;2.15;1.08;;;;;;;19.50;47.77;96248.22;5001640;28;20585;-76
2022/05/21 10:00:33;;;;;;;5.43;1.30;;;;;;;19.94;45.31;96246.47;5017186;28;20202;-77
2022/05/21 10:03:01;;;;;;;3.42;1.20;;;;;;;19.93;46.77;96242.22;5016743;28;20266;-77
2022/05/21 10:05:35;;;;;;;1.38;0.77;;;;;;;19.79;44.52;96252.63;4999779;28;20191;-77
2022/05/21 10:11:08;;;;;;;4.95;1.08;;;;;;;19.95;46.13;96240.19;5017369;28;20181;-77
2022/05/21 10:13:33;;;;;;;2.50;1.45;;;;;;;19.91;44.14;96239.75;4999430;28;20179;-75
2022/05/21 10:16:10;;;;;;;2.78;0.90;;;;;;;19.71;43.33;96241.41;5015688;28;20209;-77
2022/05/21 10:18:47;;;;;;;2.53;0.80;;;;;;;20.18;43.06;96237.34;5000011;28;20251;-78
2022/05/21 10:21:48;;;;;;;3.38;1.10;;;;;;;19.88;43.42;96229.63;5019839;28;20257;-78
2022/05/21 10:24:21;;;;;;;2.90;0.90;;;;;;;20.04;44.23;96231.97;5018881;28;20175;-78
2022/05/21 10:27:13;;;;;;;1.77;0.90;;;;;;;19.47;43.62;96230.19;5003570;28;20199;-78
2022/05/21 10:29:57;;;;;;;3.22;0.77;;;;;;;19.80;44.00;96235.00;5018682;28;20600;-78
2022/05/21 10:32:46;;;;;;;6.05;1.02;;;;;;;19.58;44.36;96226.25;5020697;28;20179;-77
2022/05/21 10:35:48;;;;;;;1.75;0.80;;;;;;;20.02;45.45;96228.72;5020003;28;20217;-78
2022/05/21 10:38:48;;;;;;;3.05;0.80;;;;;;;20.16;42.06;96228.84;5015792;28;20152;-77
2022/05/21 10:41:27;;;;;;;2.10;1.08;;;;;;;20.48;43.07;96225.63;5016231;28;20553;-77
2022/05/21 10:43:59;;;;;;;1.98;0.80;;;;;;;20.35;43.74;96218.44;5018598;28;20179;-77
2022/05/21 10:46:46;;;;;;;4.47;1.05;;;;;;;20.76;42.55;96215.06;5021039;28;20195;-78
2022/05/21 10:49:35;;;;;;;1.80;0.95;;;;;;;20.53;40.63;96210.06;5019830;28;20171;-78
2022/05/21 10:52:15;;;;;;;1.90;0.70;;;;;;;20.39;40.73;96210.94;5017946;28;20266;-78
2022/05/21 10:55:01;;;;;;;3.20;1.00;;;;;;;20.58;39.83;96207.66;5002245;28;20526;-78
2022/05/21 10:57:45;;;;;;;4.65;0.82;;;;;;;20.57;40.82;96210.47;5015792;28;20187;-78
2022/05/21 11:00:45;;;;;;;0.95;0.75;;;;;;;21.04;39.15;96206.28;5015475;28;20233;-77
2022/05/21 11:03:42;;;;;;;3.22;0.88;;;;;;;20.98;40.75;96214.97;5015722;28;20175;-78
2022/05/21 11:06:15;;;;;;;1.90;1.05;;;;;;;21.02;39.72;96216.19;4982939;28;20216;-77
2022/05/21 11:09:02;;;;;;;2.83;1.85;;;;;;;21.16;41.94;96217.88;4998943;28;20175;-77
2022/05/21 11:11:49;;;;;;;2.80;1.40;;;;;;;21.60;39.71;96214.81;5015016;28;20185;-77
2022/05/21 11:14:18;;;;;;;3.00;1.02;;;;;;;21.35;40.92;96211.06;5015933;28;20202;-77
2022/05/21 11:16:52;;;;;;;4.43;1.40;;;;;;;21.36;39.78;96213.50;5014820;28;20219;-78
2022/05/21 11:19:22;;;;;;;1.60;0.95;;;;;;;21.67;41.28;96213.00;5014886;28;20175;-77
2022/05/21 11:21:56;;;;;;;1.27;0.93;;;;;;;21.41;40.67;96212.94;5015762;28;20230;-77
2022/05/21 11:24:40;;;;;;;3.05;1.02;;;;;;;21.45;39.27;96211.50;4999069;28;20667;-76
2022/05/21 11:27:25;;;;;;;2.65;0.90;;;;;;;21.20;39.13;96209.38;5023253;28;20214;-77
2022/05/21 11:29:58;;;;;;;1.45;1.08;;;;;;;21.55;40.55;96216.41;5022647;28;20171;-77
2022/05/21 11:38:19;;;;;;;1.98;1.02;;;;;;;21.72;40.61;96197.34;5013647;28;20270;-77
2022/05/21 11:41:37;;;;;;;2.55;1.00;;;;;;;21.26;39.58;96199.84;4998588;28;20286;-79
2022/05/21 11:46:48;;;;;;;4.55;1.10;;;;;;;21.59;39.84;96207.09;5017805;28;20225;-76
2022/05/21 11:49:26;;;;;;;6.18;1.10;;;;;;;21.31;40.08;96209.84;5003159;28;20190;-79
2022/05/21 11:51:52;;;;;;;3.03;1.00;;;;;;;21.38;40.71;96208.03;5017737;28;20183;-80
2022/05/21 11:54:49;;;;;;;4.90;1.10;;;;;;;21.36;40.30;96199.50;5001591;28;20181;-78
2022/05/21 11:57:46;;;;;;;1.90;1.00;;;;;;;21.46;39.63;96205.22;5015524;28;20211;-78
2022/05/21 12:00:15;;;;;;;2.72;1.00;;;;;;;21.65;39.28;96201.81;5018353;28;20203;-75
2022/05/21 12:03:02;;;;;;;2.78;1.33;;;;;;;21.98;37.82;96201.03;5014769;28;20187;-78
2022/05/21 12:05:37;;;;;;;2.58;1.25;;;;;;;21.38;39.74;96206.22;5011618;28;20175;-77
2022/05/21 12:08:21;;;;;;;2.45;0.90;;;;;;;21.53;39.31;96199.94;5012335;28;20182;-77
2022/05/21 12:11:24;;;;;;;3.17;1.02;;;;;;;21.45;38.08;96200.94;5011591;28;20672;-77
2022/05/21 12:14:04;;;;;;;3.45;1.10;;;;;;;21.15;38.63;96197.78;5010976;28;20544;-77
2022/05/21 12:16:29;;;;;;;1.70;0.90;;;;;;;21.60;38.58;96191.03;5012636;28;20286;-78